createdAt,value
2022-11-20T00:02:08.439Z,22.30
2022-11-20T00:07:33.984Z,27.10
2022-11-20T00:10:17.167Z,22.10
2022-11-20T00:12:59.907Z,25.20
2022-11-20T00:15:42.793Z,25.30
2022-11-20T00:21:13.161Z,22.70
2022-11-20T00:23:58.141Z,23.00
2022-11-20T00:26:41.000Z,24.70
2022-11-20T00:29:25.107Z,24.30
2022-11-20T00:34:50.636Z,22.40
2022-11-20T00:37:33.439Z,22.10
2022-11-20T00:40:16.391Z,21.60
2022-11-20T00:45:41.736Z,21.40
2022-11-20T00:48:24.628Z,21.80
2022-11-20T00:51:07.545Z,21.50
2022-11-20T00:56:33.263Z,22.30
2022-11-20T01:01:58.891Z,25.70
2022-11-20T01:04:41.752Z,25.00
2022-11-20T01:10:07.960Z,20.40
2022-11-20T01:13:10.616Z,23.70
2022-11-20T01:15:53.420Z,28.00
2022-11-20T01:18:38.192Z,23.30
2022-11-20T01:21:24.565Z,25.00
2022-11-20T01:24:09.108Z,21.90
2022-11-20T01:26:52.552Z,21.80
2022-11-20T01:29:35.444Z,21.80
2022-11-20T01:32:18.504Z,20.90
2022-11-20T01:37:45.022Z,21.70
2022-11-20T01:43:24.158Z,21.10
2022-11-20T01:46:09.732Z,23.60
2022-11-20T01:49:11.984Z,23.80
2022-11-20T01:52:02.452Z,22.30
2022-11-20T01:55:00.611Z,23.90
2022-11-20T01:57:46.648Z,27.50
2022-11-20T02:00:29.851Z,23.30
2022-11-20T02:03:17.709Z,23.60
2022-11-20T02:06:09.902Z,22.70
2022-11-20T02:08:53.635Z,25.00
2022-11-20T02:11:36.731Z,33.00
2022-11-20T02:14:20.078Z,26.20
2022-11-20T02:17:02.897Z,23.40
2022-11-20T02:22:36.718Z,28.90
2022-11-20T02:25:20.931Z,26.00
2022-11-20T02:28:04.760Z,25.20
2022-11-20T02:30:47.492Z,28.30
2022-11-20T02:36:16.711Z,24.00
2022-11-20T02:39:00.793Z,25.20
2022-11-20T02:41:44.012Z,28.90
2022-11-20T02:44:26.831Z,26.80
2022-11-20T02:49:52.328Z,25.40
2022-11-20T02:52:35.212Z,25.10
2022-11-20T02:58:00.654Z,29.10
2022-11-20T03:00:43.445Z,29.40
2022-11-20T03:03:26.255Z,28.30
2022-11-20T03:08:51.909Z,29.60
2022-11-20T03:14:18.576Z,26.90
2022-11-20T03:17:01.542Z,31.80
2022-11-20T03:19:44.376Z,32.90
2022-11-20T03:25:12.368Z,28.70
2022-11-20T03:27:58.432Z,31.10
2022-11-20T03:30:41.121Z,29.40
2022-11-20T03:36:11.776Z,30.10
2022-11-20T03:38:56.731Z,29.90
2022-11-20T03:41:41.501Z,28.10
2022-11-20T03:44:24.331Z,31.20
2022-11-20T03:49:49.892Z,32.60
2022-11-20T03:52:32.728Z,32.60
2022-11-20T03:57:58.272Z,28.90
2022-11-20T04:00:41.264Z,29.70
2022-11-20T04:03:24.004Z,29.90
2022-11-20T04:06:09.778Z,29.70
2022-11-20T04:08:55.971Z,32.70
2022-11-20T04:11:41.138Z,30.60
2022-11-20T04:14:23.992Z,32.90
2022-11-20T04:17:06.855Z,29.40
2022-11-20T04:22:32.526Z,32.90
2022-11-20T04:25:15.398Z,26.70
2022-11-20T04:30:41.025Z,29.70
2022-11-20T04:36:15.526Z,29.60
2022-11-20T04:39:00.506Z,34.60
2022-11-20T04:41:43.939Z,32.80
2022-11-20T04:44:26.692Z,32.70
2022-11-20T04:47:09.566Z,34.00
2022-11-20T04:52:35.396Z,27.20
2022-11-20T04:58:00.894Z,29.90
2022-11-20T05:00:44.167Z,33.50
2022-11-20T05:03:26.953Z,32.80
2022-11-20T05:08:53.429Z,32.60
2022-11-20T05:11:36.269Z,31.60
2022-11-20T05:17:01.846Z,32.40
2022-11-20T05:22:27.407Z,31.60
2022-11-20T05:25:11.094Z,30.10
2022-11-20T05:27:54.556Z,29.30
2022-11-20T05:30:37.245Z,27.60
2022-11-20T05:33:22.672Z,27.10
2022-11-20T05:36:06.627Z,27.00
2022-11-20T05:38:51.155Z,30.00
2022-11-20T05:41:34.580Z,31.30
2022-11-20T05:44:17.421Z,27.00
2022-11-20T05:49:43.351Z,31.40
2022-11-20T05:52:29.030Z,30.50
2022-11-20T05:55:11.807Z,29.20
2022-11-20T06:00:38.865Z,29.90
2022-11-20T06:03:21.918Z,26.70
2022-11-20T06:06:06.162Z,27.20
2022-11-20T06:08:49.421Z,29.10
2022-11-20T06:11:32.320Z,31.50
2022-11-20T06:14:16.154Z,30.90
2022-11-20T06:16:59.257Z,30.90
2022-11-20T06:19:41.979Z,29.60
2022-11-20T06:22:24.774Z,34.80
2022-11-20T06:27:50.528Z,29.40
2022-11-20T06:30:33.445Z,32.70
2022-11-20T06:33:16.332Z,35.80
2022-11-20T06:38:45.528Z,31.70
2022-11-20T06:41:29.069Z,34.80
2022-11-20T06:44:12.288Z,37.00
2022-11-20T06:46:55.097Z,35.40
2022-11-20T06:52:22.654Z,33.50
2022-11-20T06:55:06.091Z,35.70
2022-11-20T06:57:53.300Z,38.70
2022-11-20T07:00:38.913Z,39.00
2022-11-20T07:03:21.747Z,34.40
2022-11-20T07:06:05.381Z,33.40
2022-11-20T07:08:53.599Z,33.50
2022-11-20T07:11:36.380Z,37.70
2022-11-20T07:17:03.225Z,34.30
2022-11-20T07:19:46.034Z,40.00
2022-11-20T07:25:11.761Z,37.60
2022-11-20T07:28:01.059Z,34.80
2022-11-20T07:30:43.798Z,39.40
2022-11-20T07:33:26.651Z,36.60
2022-11-20T07:38:52.169Z,38.00
2022-11-20T07:44:18.672Z,34.20
2022-11-20T07:47:01.952Z,40.30
2022-11-20T07:49:44.748Z,38.40
2022-11-20T07:52:27.439Z,39.40
2022-11-20T07:55:11.398Z,39.30
2022-11-20T07:58:00.759Z,33.30
2022-11-20T08:00:43.553Z,40.40
2022-11-20T08:06:09.788Z,41.00
2022-11-20T08:08:52.731Z,37.60
2022-11-20T08:11:54.299Z,38.00
2022-11-20T08:14:38.198Z,42.80
2022-11-20T08:17:21.011Z,39.00
2022-11-20T08:25:30.919Z,38.70
2022-11-20T08:28:20.734Z,38.00
2022-11-20T08:31:04.599Z,37.00
2022-11-20T08:33:47.663Z,36.10
2022-11-20T08:36:34.099Z,38.00
2022-11-20T08:39:17.996Z,42.20
2022-11-20T08:42:00.851Z,37.50
2022-11-20T08:47:27.106Z,38.90
2022-11-20T08:50:11.587Z,37.60
2022-11-20T08:52:54.384Z,41.60
2022-11-20T08:58:20.699Z,39.40
2022-11-20T09:03:48.768Z,44.80
2022-11-20T09:06:31.477Z,42.80
2022-11-20T09:09:14.404Z,35.60
2022-11-20T09:11:57.109Z,39.00
2022-11-20T09:14:39.919Z,37.30
2022-11-20T09:20:06.125Z,41.30
2022-11-20T09:22:49.665Z,34.00
2022-11-20T09:25:32.503Z,41.90
2022-11-20T09:30:58.799Z,38.70
2022-11-20T09:33:41.564Z,56.20
2022-11-20T09:39:07.174Z,37.60
2022-11-20T09:45:03.034Z,36.30
2022-11-20T09:48:17.130Z,38.60
2022-11-20T09:51:28.438Z,39.20
2022-11-20T09:54:19.167Z,33.50
2022-11-20T09:57:06.590Z,32.50
2022-11-20T09:59:59.576Z,35.40
2022-11-20T10:03:07.514Z,35.30
2022-11-20T10:05:55.295Z,39.10
2022-11-20T10:08:50.434Z,36.40
2022-11-20T10:11:55.044Z,34.10
2022-11-20T10:14:46.863Z,39.70
2022-11-20T10:17:41.552Z,33.70
2022-11-20T10:20:48.990Z,33.30
2022-11-20T10:23:34.594Z,35.00
2022-11-20T10:26:20.477Z,36.30
2022-11-20T10:29:16.695Z,34.30
2022-11-20T10:32:24.577Z,33.00
2022-11-20T10:35:34.960Z,36.30
2022-11-20T10:38:24.690Z,35.40
2022-11-20T10:41:28.164Z,36.40
2022-11-20T10:44:37.136Z,32.90
2022-11-20T10:47:19.931Z,36.70
2022-11-20T10:53:35.049Z,38.60
2022-11-20T10:56:36.693Z,31.80
2022-11-20T10:59:31.684Z,34.10
2022-11-20T11:02:23.833Z,33.90
2022-11-20T11:05:39.157Z,32.70
2022-11-20T11:08:22.687Z,32.40
2022-11-20T11:11:25.051Z,33.50
2022-11-20T11:14:15.620Z,31.70
2022-11-20T11:17:00.178Z,40.10
2022-11-20T11:19:42.915Z,37.40
2022-11-20T11:22:26.090Z,40.20
2022-11-20T11:25:20.324Z,35.10
2022-11-20T11:28:18.226Z,41.10
2022-11-20T11:31:01.162Z,41.80
2022-11-20T11:33:44.062Z,40.70
2022-11-20T11:39:16.878Z,38.30
2022-11-20T11:42:01.726Z,40.10
2022-11-20T11:45:07.739Z,42.80
2022-11-20T11:47:52.838Z,36.80
2022-11-20T11:50:35.561Z,36.90
2022-11-20T11:53:24.796Z,36.10
2022-11-20T11:56:12.418Z,37.20
2022-11-20T11:59:01.774Z,33.70
2022-11-20T12:01:53.212Z,37.80
2022-11-20T12:04:58.680Z,45.10
2022-11-20T12:07:52.425Z,39.10
2022-11-20T12:10:57.008Z,43.20
2022-11-20T12:14:05.425Z,40.10
2022-11-20T12:16:48.402Z,41.50
2022-11-20T12:19:34.541Z,41.70
2022-11-20T12:22:42.281Z,46.90
2022-11-20T12:25:33.306Z,42.70
2022-11-20T12:28:21.899Z,41.80
2022-11-20T12:31:15.507Z,43.40
2022-11-20T12:34:14.145Z,51.40
2022-11-20T12:37:27.553Z,40.20
2022-11-20T12:43:43.072Z,43.60
2022-11-20T12:46:42.355Z,43.50
2022-11-20T12:49:35.046Z,43.80
2022-11-20T12:52:27.985Z,47.30
2022-11-20T12:55:10.649Z,43.90
2022-11-20T12:57:59.710Z,40.10
2022-11-20T13:00:56.011Z,45.30
2022-11-20T13:03:48.464Z,46.70
2022-11-20T13:06:31.400Z,43.20
2022-11-20T13:12:14.847Z,39.70
2022-11-20T13:15:20.896Z,42.70
2022-11-20T13:18:06.464Z,50.30
2022-11-20T13:20:50.616Z,48.80
2022-11-20T13:23:33.445Z,49.30
2022-11-20T13:29:10.289Z,46.30
2022-11-20T13:32:16.725Z,43.80
2022-11-20T13:35:01.584Z,49.00
2022-11-20T13:37:45.020Z,46.70
2022-11-20T13:40:28.665Z,42.50
2022-11-20T13:43:38.001Z,42.30
2022-11-20T13:46:25.540Z,42.90
2022-11-20T13:49:11.481Z,45.20
2022-11-20T13:52:19.027Z,43.20
2022-11-20T13:55:21.016Z,40.30
2022-11-20T13:58:22.282Z,41.60
2022-11-20T14:01:21.284Z,42.10
2022-11-20T14:04:16.680Z,45.70
2022-11-20T14:07:00.286Z,49.10
2022-11-20T14:09:52.950Z,47.50
2022-11-20T14:12:37.823Z,44.80
2022-11-20T14:15:39.245Z,48.50
2022-11-20T14:18:27.167Z,43.50
2022-11-20T14:21:10.482Z,44.20
2022-11-20T14:23:54.853Z,41.60
2022-11-20T14:26:39.212Z,41.90
2022-11-20T14:29:29.749Z,46.80
2022-11-20T14:32:16.532Z,51.80
2022-11-20T14:35:09.576Z,46.10
2022-11-20T14:40:37.188Z,45.00
2022-11-20T14:43:28.675Z,52.00
2022-11-20T14:46:12.022Z,50.80
2022-11-20T14:49:01.815Z,43.10
2022-11-20T14:51:46.102Z,48.10
2022-11-20T14:54:30.244Z,49.60
2022-11-20T14:57:31.865Z,44.10
2022-11-20T15:00:23.945Z,46.50
2022-11-20T15:03:16.745Z,46.90
2022-11-20T15:05:59.861Z,40.80
2022-11-20T15:11:36.927Z,50.40
2022-11-20T15:14:19.807Z,47.30
2022-11-20T15:17:02.635Z,53.40
2022-11-20T15:22:28.420Z,48.10
2022-11-20T15:25:16.267Z,52.10
2022-11-20T15:27:59.220Z,52.20
2022-11-20T15:30:41.924Z,49.50
2022-11-20T15:33:25.264Z,52.80
2022-11-20T15:36:08.018Z,51.60
2022-11-20T15:38:54.184Z,51.00
2022-11-20T15:41:37.419Z,59.40
2022-11-20T15:44:20.163Z,65.70
2022-11-20T15:49:45.595Z,65.10
2022-11-20T15:52:30.492Z,59.10
2022-11-20T15:55:19.142Z,55.00
2022-11-20T16:00:46.311Z,49.40
2022-11-20T16:03:29.011Z,53.20
2022-11-20T16:06:12.030Z,52.80
2022-11-20T16:08:54.841Z,49.60
2022-11-20T16:14:40.047Z,48.70
2022-11-20T16:17:42.675Z,47.90
2022-11-20T16:20:25.418Z,48.40
2022-11-20T16:23:08.384Z,49.40
2022-11-20T16:25:52.143Z,52.10
2022-11-20T16:28:34.823Z,50.00
2022-11-20T16:31:19.620Z,50.00
2022-11-20T16:34:11.226Z,55.20
2022-11-20T16:36:54.955Z,56.20
2022-11-20T16:39:37.762Z,45.60
2022-11-20T16:42:20.552Z,53.40
2022-11-20T16:45:05.123Z,49.30
2022-11-20T16:47:47.900Z,47.00
2022-11-20T16:53:13.428Z,52.60
2022-11-20T16:58:39.464Z,63.00
2022-11-20T17:01:24.213Z,68.80
2022-11-20T17:04:07.472Z,63.80
2022-11-20T17:06:50.190Z,58.20
2022-11-20T17:09:33.268Z,54.70
2022-11-20T17:12:16.008Z,57.10
2022-11-20T17:14:58.737Z,59.50
2022-11-20T17:17:41.592Z,63.80
2022-11-20T17:23:10.963Z,68.30
2022-11-20T17:25:53.859Z,69.90
2022-11-20T17:31:20.848Z,72.40
2022-11-20T17:34:04.920Z,68.60
2022-11-20T17:36:48.074Z,65.60
2022-11-20T17:42:27.758Z,62.20
2022-11-20T17:45:10.543Z,65.40
2022-11-20T17:50:36.312Z,66.60
2022-11-20T17:53:19.111Z,65.00
2022-11-20T17:56:21.329Z,66.90
2022-11-20T17:59:05.871Z,77.90
2022-11-20T18:01:48.837Z,82.50
2022-11-20T18:04:31.944Z,75.50
2022-11-20T18:07:14.734Z,76.40
2022-11-20T18:09:57.695Z,78.50
2022-11-20T18:12:40.491Z,73.90
2022-11-20T18:15:23.267Z,79.10
2022-11-20T18:18:06.155Z,73.80
2022-11-20T18:23:36.577Z,70.80
2022-11-20T18:26:19.380Z,69.50
2022-11-20T18:29:07.179Z,79.90
2022-11-20T18:31:51.311Z,65.20
2022-11-20T18:34:34.314Z,70.60
2022-11-20T18:37:17.433Z,64.60
2022-11-20T18:40:00.264Z,63.30
2022-11-20T18:45:44.417Z,70.50
2022-11-20T18:51:11.943Z,60.60
2022-11-20T18:53:54.776Z,65.70
2022-11-20T18:59:21.420Z,72.90
2022-11-20T19:02:04.230Z,65.60
2022-11-20T19:07:30.053Z,66.00
2022-11-20T19:10:12.832Z,65.50
2022-11-20T19:15:38.596Z,68.60
2022-11-20T19:18:21.601Z,59.40
2022-11-20T19:21:08.965Z,60.30
2022-11-20T19:23:56.262Z,70.60
2022-11-20T19:26:39.123Z,65.80
2022-11-20T19:32:05.747Z,70.60
2022-11-20T19:34:48.768Z,64.40
2022-11-20T19:37:35.201Z,65.90
2022-11-20T19:40:18.309Z,66.00
2022-11-20T19:45:43.684Z,66.20
2022-11-20T19:48:26.487Z,72.00
2022-11-20T19:53:55.374Z,66.50
2022-11-20T19:56:38.183Z,70.40
2022-11-20T19:59:21.030Z,72.30
2022-11-20T20:02:04.431Z,71.40
2022-11-20T20:04:47.541Z,63.60
2022-11-20T20:07:30.311Z,64.70
2022-11-20T20:12:56.118Z,76.10
2022-11-20T20:15:43.664Z,69.00
2022-11-20T20:18:26.399Z,61.60
2022-11-20T20:21:12.068Z,66.90
2022-11-20T20:23:55.474Z,66.20
2022-11-20T20:26:38.541Z,65.40
2022-11-20T20:29:23.050Z,64.90
2022-11-20T20:32:06.265Z,71.10
2022-11-20T20:34:48.954Z,71.90
2022-11-20T20:37:31.776Z,69.90
2022-11-20T20:40:15.433Z,67.40
2022-11-20T20:42:58.260Z,66.60
2022-11-20T20:45:48.710Z,63.30
2022-11-20T20:48:31.416Z,70.40
2022-11-20T20:51:14.658Z,67.90
2022-11-20T20:53:57.749Z,65.10
2022-11-20T20:56:40.477Z,64.50
2022-11-20T21:02:07.430Z,65.80
2022-11-20T21:04:50.812Z,68.10
2022-11-20T21:07:33.782Z,65.60
2022-11-20T21:10:21.088Z,64.70
2022-11-20T21:13:06.399Z,67.50
2022-11-20T21:15:51.157Z,66.20
2022-11-20T21:18:34.872Z,62.10
2022-11-20T21:21:37.046Z,65.90
2022-11-20T21:24:20.211Z,64.70
2022-11-20T21:27:05.529Z,58.70
2022-11-20T21:29:48.298Z,69.10
2022-11-20T21:32:30.968Z,61.30
2022-11-20T21:35:13.804Z,63.50
2022-11-20T21:40:39.493Z,60.90
2022-11-20T21:46:10.143Z,61.20
2022-11-20T21:48:53.455Z,66.70
2022-11-20T21:51:36.993Z,70.20
2022-11-20T21:54:20.455Z,66.80
2022-11-20T21:57:04.350Z,66.40
2022-11-20T21:59:47.082Z,68.10
2022-11-20T22:02:29.915Z,68.30
2022-11-20T22:07:55.493Z,69.80
2022-11-20T22:10:38.266Z,61.20
2022-11-20T22:16:23.787Z,62.20
2022-11-20T22:19:07.330Z,66.50
2022-11-20T22:21:50.814Z,67.10
2022-11-20T22:24:33.759Z,66.40
2022-11-20T22:30:00.303Z,73.40
2022-11-20T22:35:26.845Z,68.10
2022-11-20T22:38:09.536Z,66.10
2022-11-20T22:40:52.367Z,68.60
2022-11-20T22:46:21.040Z,70.80
2022-11-20T22:49:06.637Z,67.00
2022-11-20T22:51:49.450Z,68.20
2022-11-20T22:57:14.971Z,66.60
2022-11-20T23:02:46.721Z,64.60
2022-11-20T23:05:32.401Z,70.30
2022-11-20T23:08:15.207Z,65.50
2022-11-20T23:11:05.916Z,69.30
2022-11-20T23:13:59.220Z,63.40
2022-11-20T23:16:42.386Z,68.20
2022-11-20T23:19:25.232Z,64.50
2022-11-20T23:22:08.014Z,63.20
2022-11-20T23:24:50.722Z,65.80
2022-11-20T23:27:34.559Z,70.10
2022-11-20T23:30:17.475Z,72.60
2022-11-20T23:33:00.228Z,68.60
2022-11-20T23:38:29.817Z,63.70
2022-11-20T23:43:55.820Z,66.90
2022-11-20T23:46:39.668Z,62.20
2022-11-20T23:49:22.397Z,63.60
2022-11-20T23:52:05.155Z,66.30
2022-11-20T23:54:47.899Z,63.10
2022-11-20T23:57:30.609Z,59.00
